Weather History for Robstown, TX

Change the Weather History Date:

Friday, February 1, 2013

  Actual Average (KCRP) Record (KCRP)
Temperature  
Mean Temperature 63 °F 58 °F  
Max Temperature 75 °F 68 °F 87 °F (1963)
Min Temperature 51 °F 48 °F 18 °F (1951)
Degree Days  
Heating Degree Days 2 8  
Month to date heating degree days 8  
Since 1 July heating degree days 635  
Cooling Degree Days 0 1  
Month to date cooling degree days 1  
Year to date cooling degree days 31  
Growing Degree Days 13 (Base 50)    
Moisture  
Dew Point 44 °F    
Average Humidity 56    
Maximum Humidity 87    
Minimum Humidity 24    
Precipitation  
Precipitation 0.00 in 0.06 in 1.24 in (1895)
Month to date precipitation 0.06  
Year to date precipitation 1.60  
Snow  
Snow 0.00 in - - ()
Month to date snowfall  
Since 1 July snowfall  
Snow Depth -    
Sea Level Pressure  
Sea Level Pressure 30.27 in    
Wind  
Wind Speed 7 mph (SE)    
Max Wind Speed 17 mph    
Max Gust Speed 23 mph    
Visibility 10 miles    
Events      
T = Trace of Precipitation, MM = Missing Value Source: NWS Daily Summary

Daily Weather History Graph

Daily Weather History Graph

Search for Another Location

Airport:

Trip Planner

Search our weather history database for the weather conditions in past years. The results will help you decide how hot, cold, wet, or windy it might be!

Date:

Astronomy

Feb. 01, 2013 Rise Set
Actual Time 7:17 AM CST 6:11 PM CST
Civil Twilight 6:52 AM CST 6:36 PM CST
Nautical Twilight 6:24 AM CST 7:04 PM CST
Astronomical Twilight 5:57 AM CST 7:31 PM CST
Moon 11:42 PM CST (2/1) 10:26 AM CST (2/1)
Length of Visible Light 11h 43m
Length of Day
10h 54m
Waning Gibbous, 70% of the Moon is Illuminated
Feb 1
Waning Gibbous
Feb 3
Last Quarter
Feb 10
New
Feb 17
First Quarter
Feb 25
Full

Hourly Weather History & Observations

Time (CST) Temp. Dew Point Humidity Pressure Visibility Wind Dir Wind Speed Gust Speed Precip Events Conditions
12:15 AM 56.5 °F 44.6 °F 64% 30.30 in 10.0 mi SE 5.8 mph - N/A   Clear
12:35 AM 55.9 °F 44.6 °F 66% 30.29 in 10.0 mi SE 4.6 mph - N/A   Clear
12:55 AM 55.8 °F 44.6 °F 66% 30.29 in 10.0 mi ESE 4.6 mph - N/A   Clear
1:15 AM 55.4 °F 44.4 °F 67% 30.28 in 10.0 mi SE 4.6 mph - N/A   Clear
1:35 AM 55.6 °F 44.6 °F 67% 30.28 in 10.0 mi SE 5.8 mph - N/A   Clear
1:55 AM 55.9 °F 45.5 °F 68% 30.28 in 10.0 mi SE 5.8 mph - N/A   Clear
2:15 AM 55.4 °F 45.3 °F 69% 30.29 in 10.0 mi SE 4.6 mph - N/A   Clear
2:35 AM 54.9 °F 45.3 °F 70% 30.29 in 10.0 mi SE 3.5 mph - N/A   Clear
2:55 AM 53.8 °F 45.5 °F 74% 30.28 in 10.0 mi SSE 4.6 mph - N/A   Clear
3:15 AM 53.4 °F 45.9 °F 76% 30.29 in 10.0 mi SSE 3.5 mph - N/A   Clear
3:35 AM 52.5 °F 45.9 °F 78% 30.29 in 10.0 mi SSE 3.5 mph - N/A   Clear
4:15 AM 51.8 °F 46.4 °F 82% 30.29 in 10.0 mi SE 3.5 mph - N/A   Clear
4:35 AM 52.0 °F 45.7 °F 79% 30.30 in 10.0 mi Calm Calm - N/A   Clear
4:55 AM 53.8 °F 48.2 °F 81% 30.29 in 10.0 mi Calm Calm - N/A   Clear
5:15 AM 53.6 °F 48.4 °F 82% 30.29 in 10.0 mi Calm Calm - N/A   Clear
5:35 AM 53.6 °F 48.2 °F 82% 30.29 in 10.0 mi ESE 3.5 mph - N/A   Clear
5:55 AM 53.6 °F 48.6 °F 83% 30.29 in 10.0 mi ESE 4.6 mph - N/A   Clear
6:15 AM 51.6 °F 47.1 °F 85% 30.30 in 10.0 mi East 3.5 mph - N/A   Clear
6:35 AM 52.3 °F 48.2 °F 86% 30.30 in 10.0 mi East 4.6 mph - N/A   Clear
6:55 AM 52.2 °F 48.0 °F 86% 30.31 in 10.0 mi East 3.5 mph - N/A   Clear
7:15 AM 51.1 °F 47.3 °F 87% 30.31 in 10.0 mi SE 4.6 mph - N/A   Clear
7:35 AM 51.1 °F 47.5 °F 87% 30.31 in 10.0 mi SE 5.8 mph - N/A   Clear
8:15 AM 54.5 °F 48.7 °F 81% 30.33 in 10.0 mi SE 4.6 mph - N/A   Clear
8:35 AM 57.7 °F 50.0 °F 75% 30.33 in 10.0 mi SE 4.6 mph - N/A   Clear
9:15 AM 65.3 °F 49.6 °F 57% 30.34 in 10.0 mi SE 8.1 mph - N/A   Clear
9:35 AM 67.3 °F 49.3 °F 52% 30.35 in 10.0 mi SSE 10.4 mph - N/A   Clear
10:15 AM 69.6 °F 46.2 °F 43% 30.35 in 10.0 mi SSE 9.2 mph - N/A   Clear
10:35 AM 70.7 °F 44.2 °F 39% 30.35 in 10.0 mi SE 11.5 mph - N/A   Clear
10:55 AM 71.6 °F 41.4 °F 33% 30.34 in 10.0 mi SE 10.4 mph - N/A   Clear
11:15 AM 72.1 °F 38.5 °F 29% 30.33 in 10.0 mi SSE 9.2 mph - N/A   Clear
11:35 AM 72.5 °F 40.1 °F 31% 30.33 in 10.0 mi ESE 9.2 mph 16.1 mph N/A   Clear
11:55 AM 72.5 °F 38.7 °F 29% 30.32 in 10.0 mi SE 10.4 mph 16.1 mph N/A   Clear
12:15 PM 74.1 °F 36.7 °F 26% 30.31 in 10.0 mi SE 13.8 mph 19.6 mph N/A   Clear
12:35 PM 73.9 °F 36.3 °F 25% 30.30 in 10.0 mi SE 9.2 mph 20.7 mph N/A   Clear
12:55 PM 74.3 °F 36.7 °F 25% 30.29 in 10.0 mi SE 13.8 mph 18.4 mph N/A   Clear
1:15 PM 74.1 °F 34.9 °F 24% 30.28 in 10.0 mi SE 16.1 mph 21.9 mph N/A   Clear
1:35 PM 74.3 °F 35.8 °F 25% 30.27 in 10.0 mi ESE 10.4 mph 19.6 mph N/A   Clear
1:55 PM 75.0 °F 38.7 °F 27% 30.26 in 10.0 mi SSE 15.0 mph 20.7 mph N/A   Clear
2:15 PM 74.3 °F 36.1 °F 25% 30.25 in 10.0 mi ESE 15.0 mph 21.9 mph N/A   Clear
2:35 PM 74.1 °F 36.1 °F 25% 30.24 in 10.0 mi ESE 17.3 mph 23.0 mph N/A   Clear
2:55 PM 74.3 °F 37.8 °F 27% 30.24 in 10.0 mi SE 17.3 mph - N/A   Clear
3:15 PM 73.6 °F 38.1 °F 28% 30.24 in 10.0 mi ESE 12.7 mph 23.0 mph N/A   Clear
3:35 PM 72.9 °F 38.3 °F 29% 30.23 in 10.0 mi SE 13.8 mph 20.7 mph N/A   Clear
3:55 PM 72.7 °F 38.8 °F 29% 30.22 in 10.0 mi ESE 16.1 mph 19.6 mph N/A   Clear
4:15 PM 72.5 °F 39.7 °F 31% 30.22 in 10.0 mi ESE 15.0 mph 20.7 mph N/A   Clear
4:35 PM 71.4 °F 40.1 °F 32% 30.22 in 10.0 mi SE 12.7 mph 20.7 mph N/A   Clear
4:55 PM 70.5 °F 41.5 °F 35% 30.22 in 10.0 mi SE 17.3 mph - N/A   Clear
5:15 PM 69.8 °F 43.3 °F 38% 30.22 in 10.0 mi ESE 16.1 mph 20.7 mph N/A   Clear
5:35 PM 68.4 °F 43.0 °F 40% 30.22 in 10.0 mi ESE 17.3 mph 20.7 mph N/A   Clear
5:55 PM 67.3 °F 43.5 °F 42% 30.22 in 10.0 mi SE 15.0 mph - N/A   Clear
6:15 PM 66.2 °F 44.6 °F 46% 30.22 in 10.0 mi SE 12.7 mph - N/A   Clear
6:35 PM 65.3 °F 45.0 °F 48% 30.23 in 10.0 mi SE 11.5 mph - N/A   Clear
6:55 PM 64.4 °F 45.1 °F 50% 30.23 in 10.0 mi ESE 9.2 mph - N/A   Clear
7:15 PM 63.0 °F 45.1 °F 52% 30.24 in 10.0 mi ESE 8.1 mph - N/A   Clear
7:35 PM 61.7 °F 44.8 °F 54% 30.24 in 10.0 mi ESE 6.9 mph - N/A   Clear
7:55 PM 60.4 °F 44.6 °F 56% 30.24 in 10.0 mi ESE 6.9 mph - N/A   Clear
8:15 PM 60.3 °F 46.0 °F 59% 30.24 in 10.0 mi ESE 6.9 mph - N/A   Clear
8:35 PM 59.4 °F 45.5 °F 60% 30.24 in 10.0 mi East 5.8 mph - N/A   Clear
8:55 PM 59.0 °F 46.8 °F 64% 30.25 in 10.0 mi ESE 5.8 mph - N/A   Clear
9:15 PM 58.1 °F 46.2 °F 65% 30.24 in 10.0 mi ESE 5.8 mph - N/A   Clear
9:35 PM 57.9 °F 47.5 °F 68% 30.25 in 10.0 mi ESE 5.8 mph - N/A   Clear
9:55 PM 57.6 °F 47.3 °F 69% 30.24 in 10.0 mi ESE 6.9 mph - N/A   Clear
10:15 PM 57.6 °F 47.5 °F 69% 30.24 in 10.0 mi SE 6.9 mph - N/A   Clear
10:35 PM 56.5 °F 46.8 °F 70% 30.24 in 10.0 mi ESE 5.8 mph - N/A   Clear
10:55 PM 56.3 °F 47.3 °F 72% 30.24 in 10.0 mi ESE 4.6 mph - N/A   Scattered Clouds
11:15 PM 57.2 °F 47.7 °F 70% 30.23 in 10.0 mi East 5.8 mph - N/A   Mostly Cloudy
11:35 PM 58.5 °F 48.7 °F 70% 30.23 in 10.0 mi ESE 5.8 mph - N/A   Overcast
11:55 PM 58.1 °F 48.6 °F 71% 30.22 in 10.0 mi ESE 5.8 mph - N/A   Mostly Cloudy